TimeCST,TemperatureF,Dew PointF,Humidity,Sea Level PressureIn,VisibilityMPH,Wind Direction,Wind SpeedMPH,Gust SpeedMPH,PrecipitationIn,Events,Conditions,WindDirDegrees,DateUTC
12:35 AM,35.6,30.2,81,30.03,9.0,SSE,15.0,-,N/A,,Overcast,160,2013-02-07 06:35:00
12:55 AM,35.6,30.2,81,30.03,10.0,SSE,11.5,-,N/A,,Overcast,160,2013-02-07 06:55:00
1:15 AM,35.6,30.2,81,30.03,10.0,SSE,11.5,-,N/A,,Overcast,160,2013-02-07 07:15:00
1:35 AM,35.6,30.2,81,30.02,9.0,SSE,11.5,-,N/A,,Overcast,150,2013-02-07 07:35:00
1:55 AM,35.6,30.2,81,30.02,8.0,SSE,10.4,-,N/A,,Overcast,160,2013-02-07 07:55:00
2:15 AM,35.6,30.2,81,30.02,9.0,SSE,9.2,-,N/A,,Overcast,160,2013-02-07 08:15:00
2:35 AM,35.6,30.2,81,30.02,5.0,SSE,9.2,-,N/A,,Overcast,150,2013-02-07 08:35:00
2:55 AM,35.6,30.2,81,30.02,5.0,SE,8.1,-,0.01,,Overcast,140,2013-02-07 08:55:00
3:15 AM,35.6,30.2,81,30.01,4.0,SSE,6.9,-,0.01,,Overcast,150,2013-02-07 09:15:00
3:35 AM,35.6,30.2,81,30.01,4.0,SSE,10.4,-,0.01,,Overcast,150,2013-02-07 09:35:00
3:55 AM,35.6,30.2,81,30.01,4.0,SSE,8.1,-,0.02,,Overcast,150,2013-02-07 09:55:00
4:15 AM,33.8,30.2,87,30.01,3.0,SSE,9.2,-,N/A,,Overcast,150,2013-02-07 10:15:00
4:35 AM,33.8,30.2,87,30.00,3.0,SSE,9.2,-,0.01,,Overcast,150,2013-02-07 10:35:00
4:55 AM,33.8,30.2,87,30.00,3.0,SSE,10.4,-,0.02,,Overcast,150,2013-02-07 10:55:00
5:15 AM,33.8,30.2,87,29.99,2.5,SE,9.2,-,0.01,,Overcast,130,2013-02-07 11:15:00
5:35 AM,33.8,30.2,87,29.99,2.5,SE,10.4,-,0.02,,Overcast,140,2013-02-07 11:35:00
5:55 AM,33.8,30.2,87,29.99,3.0,SE,10.4,-,0.02,,Overcast,140,2013-02-07 11:55:00
6:15 AM,35.6,30.2,81,29.99,2.5,SE,11.5,-,0.01,,Overcast,140,2013-02-07 12:15:00
6:35 AM,35.6,30.2,81,29.99,2.5,SE,10.4,-,0.03,,Overcast,140,2013-02-07 12:35:00
6:55 AM,35.6,30.2,81,29.98,3.0,SE,11.5,-,0.03,,Overcast,130,2013-02-07 12:55:00
7:15 AM,35.6,30.2,81,29.98,3.0,SE,12.7,-,0.01,,Overcast,140,2013-02-07 13:15:00
7:35 AM,35.6,30.2,81,29.99,2.5,SE,11.5,-,0.01,,Overcast,140,2013-02-07 13:35:00
7:55 AM,33.8,30.2,87,29.98,2.0,SE,9.2,-,0.01,,Overcast,140,2013-02-07 13:55:00
8:15 AM,33.8,30.2,87,29.99,1.8,SE,9.2,-,0.01,,Overcast,140,2013-02-07 14:15:00
8:35 AM,33.8,30.2,87,29.99,1.5,SE,9.2,-,0.02,,Overcast,140,2013-02-07 14:35:00
8:55 AM,33.8,30.2,87,29.98,1.5,SE,9.2,-,0.02,,Overcast,140,2013-02-07 14:55:00
9:15 AM,33.8,30.2,87,29.98,1.2,SE,8.1,-,0.01,,Overcast,130,2013-02-07 15:15:00
9:35 AM,35.6,32.0,87,29.98,1.5,SE,10.4,-,0.03,,Overcast,140,2013-02-07 15:35:00
9:55 AM,35.6,32.0,87,29.98,1.5,SE,6.9,-,0.05,,Overcast,130,2013-02-07 15:55:00
10:15 AM,35.6,32.0,87,29.98,1.5,SE,8.1,-,0.02,,Overcast,130,2013-02-07 16:15:00
10:35 AM,35.6,32.0,87,29.97,1.2,ESE,6.9,-,0.04,,Overcast,120,2013-02-07 16:35:00
10:55 AM,35.6,32.0,87,29.97,1.2,ESE,5.8,-,0.04,,Overcast,110,2013-02-07 16:55:00
11:15 AM,35.6,32.0,87,29.97,1.0,ESE,5.8,-,0.02,,Overcast,110,2013-02-07 17:15:00
11:35 AM,35.6,32.0,87,29.96,1.2,ESE,4.6,-,0.02,,Overcast,110,2013-02-07 17:35:00
11:55 AM,35.6,32.0,87,29.95,1.2,ESE,4.6,-,0.04,,Overcast,110,2013-02-07 17:55:00
12:15 PM,35.6,32.0,87,29.94,1.2,Calm,Calm,-,0.01,,Mostly Cloudy,0,2013-02-07 18:15:00
12:35 PM,35.6,32.0,87,29.94,1.2,East,3.5,-,0.02,,Unknown,90,2013-02-07 18:35:00
12:55 PM,35.6,32.0,87,29.93,1.2,East,3.5,-,0.03,,Mostly Cloudy,80,2013-02-07 18:55:00
1:15 PM,35.6,32.0,87,29.92,1.2,East,4.6,-,0.01,,Overcast,100,2013-02-07 19:15:00
1:35 PM,35.6,32.0,87,29.92,1.5,East,3.5,-,0.02,,Mostly Cloudy,100,2013-02-07 19:35:00
1:55 PM,35.6,32.0,87,29.92,1.5,Calm,Calm,-,0.03,,Mostly Cloudy,0,2013-02-07 19:55:00
2:15 PM,35.6,32.0,87,29.91,1.2,NNE,3.5,-,0.01,,Unknown,30,2013-02-07 20:15:00
2:35 PM,33.8,30.2,87,29.91,1.2,NNE,4.6,-,0.03,,Mostly Cloudy,20,2013-02-07 20:35:00
2:55 PM,33.8,30.2,87,29.91,1.0,NNE,4.6,-,0.04,,Mostly Cloudy,20,2013-02-07 20:55:00
3:15 PM,33.8,30.2,87,29.91,1.2,North,4.6,-,0.01,,Mostly Cloudy,10,2013-02-07 21:15:00
3:35 PM,33.8,30.2,87,29.91,1.5,North,5.8,-,0.02,,Scattered Clouds,360,2013-02-07 21:35:00
3:55 PM,33.8,30.2,87,29.91,1.2,North,6.9,-,0.02,,Mostly Cloudy,350,2013-02-07 21:55:00
4:15 PM,33.8,30.2,87,29.93,1.2,NNW,8.1,-,0.01,,Overcast,340,2013-02-07 22:15:00
4:35 PM,32.0,30.2,93,29.93,1.2,NNW,8.1,-,0.01,,Overcast,340,2013-02-07 22:35:00
4:55 PM,32.0,28.4,87,29.93,1.2,NNW,9.2,-,0.02,,Overcast,340,2013-02-07 22:55:00
5:35 PM,32.0,30.2,93,29.94,1.2,North,9.2,-,0.01,,Overcast,360,2013-02-07 23:35:00
5:55 PM,32.0,28.4,87,29.94,2.5,North,8.1,-,0.01,,Scattered Clouds,350,2013-02-07 23:55:00
6:15 PM,32.0,30.2,93,29.96,3.0,NNW,9.2,-,0.01,,Scattered Clouds,330,2013-02-08 00:15:00
6:35 PM,32.0,28.4,87,29.97,3.0,NNW,11.5,-,0.01,,Scattered Clouds,340,2013-02-08 00:35:00
6:55 PM,33.8,30.2,87,29.99,4.0,NNW,10.4,-,0.01,,Mostly Cloudy,330,2013-02-08 00:55:00
7:15 PM,33.8,30.2,87,30.00,5.0,NNW,11.5,-,N/A,,Overcast,330,2013-02-08 01:15:00
7:35 PM,33.8,28.4,81,30.01,8.0,NNW,13.8,-,N/A,,Overcast,340,2013-02-08 01:35:00
7:55 PM,33.8,30.2,87,30.01,8.0,NNW,11.5,-,N/A,,Overcast,340,2013-02-08 01:55:00
8:15 PM,33.8,28.4,81,30.02,10.0,North,11.5,-,N/A,,Mostly Cloudy,350,2013-02-08 02:15:00
8:35 PM,33.8,28.4,81,30.02,10.0,NNW,9.2,-,N/A,,Overcast,340,2013-02-08 02:35:00
8:55 PM,33.8,28.4,81,30.03,10.0,North,10.4,-,N/A,,Overcast,350,2013-02-08 02:55:00
9:15 PM,33.8,28.4,81,30.04,10.0,North,12.7,-,N/A,,Overcast,350,2013-02-08 03:15:00
9:35 PM,32.0,26.6,80,30.05,10.0,North,18.4,23.0,N/A,,Overcast,350,2013-02-08 03:35:00
9:55 PM,32.0,26.6,80,30.06,10.0,North,16.1,-,N/A,,Overcast,350,2013-02-08 03:55:00
10:15 PM,30.2,26.6,86,30.07,10.0,North,18.4,-,N/A,,Overcast,350,2013-02-08 04:15:00
10:35 PM,30.2,26.6,86,30.07,10.0,North,16.1,-,N/A,,Overcast,350,2013-02-08 04:35:00
11:15 PM,30.2,24.8,80,30.08,10.0,North,15.0,20.7,N/A,,Mostly Cloudy,350,2013-02-08 05:15:00
11:35 PM,30.2,24.8,80,30.09,10.0,North,16.1,-,N/A,,Mostly Cloudy,350,2013-02-08 05:35:00
11:55 PM,30.2,24.8,80,30.09,10.0,North,13.8,-,N/A,,Overcast,350,2013-02-08 05:55:00